createdAt,value
2018-03-27T00:08:17.591Z,0.80
2018-03-27T00:10:47.958Z,0.70
2018-03-27T00:16:38.918Z,0.70
2018-03-27T00:19:09.053Z,0.60
2018-03-27T00:24:45.672Z,0.60
2018-03-27T00:27:14.012Z,0.60
2018-03-27T00:33:08.492Z,0.50
2018-03-27T00:35:57.180Z,0.40
2018-03-27T00:47:47.489Z,0.20
2018-03-27T00:50:17.910Z,0.30
2018-03-27T01:02:21.877Z,0.40
2018-03-27T01:07:49.368Z,0.40
2018-03-27T01:13:29.633Z,0.50
2018-03-27T01:19:09.579Z,0.60
2018-03-27T01:21:39.412Z,0.60
2018-03-27T01:33:31.553Z,0.50
2018-03-27T01:36:01.662Z,0.70
2018-03-27T01:38:48.858Z,0.70
2018-03-27T01:41:18.952Z,0.80
2018-03-27T01:47:09.043Z,0.90
2018-03-27T01:49:53.885Z,0.80
2018-03-27T02:02:09.537Z,0.80
2018-03-27T02:04:39.460Z,0.90
2018-03-27T02:07:10.161Z,0.80
2018-03-27T02:09:58.649Z,0.80
2018-03-27T02:27:36.041Z,0.60
2018-03-27T02:30:06.277Z,0.60
2018-03-27T02:32:36.378Z,0.60
2018-03-27T02:38:45.023Z,0.50
2018-03-27T02:41:15.391Z,0.50
2018-03-27T02:46:58.883Z,0.40
2018-03-27T02:49:29.187Z,0.40
2018-03-27T02:52:12.834Z,0.30
2018-03-27T02:57:55.954Z,0.20
2018-03-27T03:00:44.812Z,0.20
2018-03-27T03:03:42.719Z,0.20
2018-03-27T03:06:38.570Z,0.30
2018-03-27T03:09:08.735Z,0.20
2018-03-27T03:14:51.883Z,0.20
2018-03-27T03:17:22.341Z,0.00
2018-03-27T03:20:08.794Z,0.10
2018-03-27T03:22:55.260Z,0.10
2018-03-27T03:25:25.839Z,0.10
2018-03-27T03:28:25.005Z,0.00
2018-03-27T03:34:40.203Z,0.00
2018-03-27T03:40:12.222Z,0.00
2018-03-27T03:42:43.133Z,0.10
2018-03-27T03:45:13.231Z,0.10
2018-03-27T03:54:17.621Z,0.10
2018-03-27T03:56:48.002Z,0.20
2018-03-27T03:59:18.402Z,0.20
2018-03-27T04:01:48.490Z,0.30
2018-03-27T04:04:18.590Z,0.30
2018-03-27T04:06:48.692Z,0.40
2018-03-27T04:21:51.423Z,0.60
2018-03-27T04:30:35.976Z,0.60
2018-03-27T04:33:06.379Z,0.70
2018-03-27T04:35:36.472Z,0.70
2018-03-27T04:38:31.924Z,0.70
2018-03-27T04:41:01.779Z,0.80
2018-03-27T04:46:42.681Z,0.70
2018-03-27T04:49:13.130Z,0.70
2018-03-27T04:51:43.417Z,0.70
2018-03-27T04:54:13.583Z,0.70
2018-03-27T05:02:58.757Z,0.60
2018-03-27T05:05:45.954Z,0.60
2018-03-27T05:11:24.490Z,0.50
2018-03-27T05:16:55.328Z,0.60
2018-03-27T05:19:44.375Z,0.60
2018-03-27T05:22:14.523Z,0.60
2018-03-27T05:25:01.072Z,0.60
2018-03-27T05:27:32.157Z,0.60
2018-03-27T05:30:21.182Z,0.60
2018-03-27T05:33:14.224Z,0.70
2018-03-27T05:35:56.375Z,0.70
2018-03-27T05:38:48.185Z,0.70
2018-03-27T05:41:18.149Z,0.70
2018-03-27T05:47:20.873Z,0.70
2018-03-27T05:52:51.615Z,0.80
2018-03-27T05:55:25.745Z,0.80
2018-03-27T05:57:56.427Z,0.80
2018-03-27T06:00:34.818Z,0.70
2018-03-27T06:03:05.414Z,0.70
2018-03-27T06:15:12.019Z,0.90
2018-03-27T06:17:42.149Z,1.00
2018-03-27T06:24:52.452Z,1.10
2018-03-27T06:27:22.621Z,1.20
2018-03-27T06:29:53.562Z,1.40
2018-03-27T06:32:24.492Z,1.40
2018-03-27T06:34:56.245Z,1.50
2018-03-27T06:40:37.961Z,1.70
2018-03-27T06:49:24.051Z,1.90
2018-03-27T06:55:04.110Z,2.00
2018-03-27T06:57:35.569Z,2.10
2018-03-27T07:09:10.290Z,2.30
2018-03-27T07:14:54.649Z,2.40
2018-03-27T07:17:24.948Z,2.50
2018-03-27T07:20:21.392Z,2.60
2018-03-27T07:22:51.742Z,2.80
2018-03-27T07:25:22.186Z,3.00
2018-03-27T07:27:53.833Z,3.10
2018-03-27T07:30:23.983Z,3.20
2018-03-27T07:33:01.866Z,3.10
2018-03-27T07:35:36.985Z,3.20
2018-03-27T07:38:07.368Z,3.30
2018-03-27T07:47:18.745Z,4.60
2018-03-27T07:49:54.678Z,5.00
2018-03-27T07:52:26.569Z,5.20
2018-03-27T07:55:20.876Z,5.40
2018-03-27T07:57:57.476Z,5.60
2018-03-27T08:06:39.718Z,6.00
2018-03-27T08:12:53.675Z,6.20
2018-03-27T08:15:31.359Z,6.30
2018-03-27T08:21:24.141Z,6.90
2018-03-27T08:30:09.255Z,8.30
2018-03-27T08:32:41.967Z,8.30
2018-03-27T08:35:14.044Z,7.90
2018-03-27T08:37:46.691Z,7.50
2018-03-27T08:43:28.741Z,8.20
2018-03-27T09:03:20.359Z,6.90
2018-03-27T09:05:57.542Z,7.10
2018-03-27T09:08:29.246Z,7.00
2018-03-27T09:11:05.026Z,7.00
2018-03-27T09:13:36.275Z,7.30
2018-03-27T09:16:10.484Z,7.50
2018-03-27T09:18:41.648Z,8.10
2018-03-27T09:21:16.573Z,8.40
2018-03-27T09:26:56.278Z,9.20
2018-03-27T09:35:40.058Z,8.50
2018-03-27T09:41:16.850Z,7.90
2018-03-27T09:43:47.148Z,8.10
2018-03-27T09:46:18.001Z,7.90
2018-03-27T09:48:48.069Z,7.90
2018-03-27T09:51:18.147Z,7.70
2018-03-27T09:53:49.174Z,7.70
2018-03-27T09:56:19.365Z,7.70
2018-03-27T09:58:49.495Z,7.80
2018-03-27T10:01:25.144Z,7.80
2018-03-27T10:03:55.272Z,7.70
2018-03-27T10:06:26.411Z,7.80
2018-03-27T10:08:56.532Z,7.90
2018-03-27T10:11:26.765Z,8.00
2018-03-27T10:13:57.072Z,8.40
2018-03-27T10:16:27.922Z,9.00
2018-03-27T10:18:58.807Z,9.40
2018-03-27T10:21:29.665Z,9.30
2018-03-27T10:24:00.017Z,9.30
2018-03-27T10:26:30.381Z,9.40
2018-03-27T10:29:00.468Z,9.40
2018-03-27T10:31:30.777Z,9.20
2018-03-27T10:34:00.888Z,9.30
2018-03-27T10:36:31.051Z,9.20
2018-03-27T10:39:01.887Z,8.70
2018-03-27T10:41:32.834Z,8.70
2018-03-27T10:44:03.180Z,8.60
2018-03-27T10:46:33.455Z,8.20
2018-03-27T10:49:03.553Z,8.00
2018-03-27T10:51:34.463Z,8.00
2018-03-27T10:54:05.223Z,8.00
2018-03-27T10:56:35.317Z,8.20
2018-03-27T10:59:06.064Z,8.10
2018-03-27T11:01:37.077Z,7.90
2018-03-27T11:04:09.813Z,7.60
2018-03-27T11:06:40.479Z,7.70
2018-03-27T11:09:10.716Z,7.70
2018-03-27T11:11:42.154Z,7.40
2018-03-27T11:14:12.966Z,7.40
2018-03-27T11:16:46.998Z,7.20
2018-03-27T11:19:21.981Z,7.10
2018-03-27T11:21:53.548Z,7.10
2018-03-27T11:24:25.924Z,7.00
2018-03-27T11:26:57.841Z,6.90
2018-03-27T11:29:28.117Z,6.80
2018-03-27T11:32:01.411Z,6.50
2018-03-27T11:34:34.685Z,6.40
2018-03-27T11:37:05.524Z,6.50
2018-03-27T11:39:36.085Z,6.50
2018-03-27T11:42:06.159Z,6.70
2018-03-27T11:44:36.728Z,7.00
2018-03-27T11:47:06.911Z,7.50
2018-03-27T11:49:37.006Z,7.90
2018-03-27T11:52:08.051Z,8.60
2018-03-27T11:54:38.085Z,8.60
2018-03-27T11:57:08.447Z,8.60
2018-03-27T11:59:38.626Z,8.60
2018-03-27T12:02:09.193Z,8.50
2018-03-27T12:04:39.808Z,8.60
2018-03-27T12:07:09.901Z,8.60
2018-03-27T12:09:40.016Z,8.30
2018-03-27T12:12:11.236Z,8.10
2018-03-27T12:14:41.558Z,8.10
2018-03-27T12:17:12.646Z,8.70
2018-03-27T12:19:42.907Z,8.70
2018-03-27T12:22:13.191Z,8.90
2018-03-27T12:24:44.968Z,9.40
2018-03-27T12:27:15.473Z,9.40
2018-03-27T12:29:45.563Z,9.30
2018-03-27T12:32:15.829Z,9.20
2018-03-27T12:34:47.535Z,10.50
2018-03-27T12:37:17.821Z,10.50
2018-03-27T12:39:48.148Z,11.10
2018-03-27T12:42:18.316Z,11.80
2018-03-27T12:44:48.857Z,12.30
2018-03-27T12:47:19.271Z,12.10
2018-03-27T12:49:49.605Z,11.90
2018-03-27T12:52:19.717Z,11.10
2018-03-27T12:54:49.862Z,10.60
2018-03-27T12:57:23.015Z,10.20
2018-03-27T12:59:53.194Z,9.80
2018-03-27T13:02:23.372Z,9.40
2018-03-27T13:04:53.892Z,9.40
2018-03-27T13:07:24.045Z,9.60
2018-03-27T13:09:54.105Z,9.70
2018-03-27T13:12:24.219Z,9.50
2018-03-27T13:14:54.329Z,9.30
2018-03-27T13:17:24.905Z,9.10
2018-03-27T13:19:55.061Z,9.00
2018-03-27T13:22:25.012Z,8.80
2018-03-27T13:24:55.098Z,8.70
2018-03-27T13:27:25.822Z,8.60
2018-03-27T13:29:57.311Z,8.90
2018-03-27T13:32:27.228Z,9.50
2018-03-27T13:34:57.521Z,10.30
2018-03-27T13:37:28.478Z,11.00
2018-03-27T13:39:58.587Z,11.00
2018-03-27T13:42:28.717Z,11.00
2018-03-27T13:44:58.909Z,10.80
2018-03-27T13:47:29.273Z,10.20
2018-03-27T13:50:00.140Z,9.70
2018-03-27T13:52:31.287Z,9.50
2018-03-27T13:55:01.576Z,9.50
2018-03-27T13:57:32.697Z,9.60
2018-03-27T14:00:02.481Z,9.60
2018-03-27T14:02:32.810Z,10.00
2018-03-27T14:05:03.127Z,10.30
2018-03-27T14:07:33.438Z,10.40
2018-03-27T14:10:03.514Z,10.30
2018-03-27T14:12:33.476Z,10.40
2018-03-27T14:15:03.437Z,10.70
2018-03-27T14:17:33.749Z,11.40
2018-03-27T14:20:03.534Z,12.10
2018-03-27T14:22:33.630Z,12.10
2018-03-27T14:25:03.557Z,12.20
2018-03-27T14:27:36.815Z,11.80
2018-03-27T14:30:09.407Z,11.30
2018-03-27T14:32:38.929Z,10.60
2018-03-27T14:35:09.156Z,9.70
2018-03-27T14:37:39.823Z,9.20
2018-03-27T14:40:11.097Z,9.10
2018-03-27T14:42:41.424Z,9.00
2018-03-27T14:45:13.674Z,8.90
2018-03-27T14:47:43.928Z,8.90
2018-03-27T14:50:15.451Z,8.80
2018-03-27T14:52:46.264Z,8.80
2018-03-27T14:55:16.877Z,8.70
2018-03-27T14:57:48.140Z,8.70
2018-03-27T15:00:18.263Z,8.70
2018-03-27T15:02:49.260Z,8.80
2018-03-27T15:05:19.578Z,8.90
2018-03-27T15:07:49.711Z,9.00
2018-03-27T15:10:19.892Z,9.10
2018-03-27T15:12:50.088Z,9.10
2018-03-27T15:15:20.488Z,9.10
2018-03-27T15:17:50.581Z,9.00
2018-03-27T15:20:21.218Z,8.90
2018-03-27T15:22:51.486Z,8.80
2018-03-27T15:25:21.960Z,8.60
2018-03-27T15:27:52.800Z,8.40
2018-03-27T15:30:24.950Z,8.40
2018-03-27T15:32:57.292Z,8.20
2018-03-27T15:35:32.048Z,8.00
2018-03-27T15:38:02.488Z,7.80
2018-03-27T15:40:34.442Z,7.60
2018-03-27T15:43:05.609Z,7.60
2018-03-27T15:45:37.533Z,7.50
2018-03-27T15:48:21.832Z,7.40
2018-03-27T15:50:54.412Z,7.30
2018-03-27T15:53:34.604Z,7.20
2018-03-27T15:56:14.218Z,7.10
2018-03-27T15:58:44.702Z,7.10
2018-03-27T16:01:15.140Z,7.20
2018-03-27T16:03:46.366Z,7.20
2018-03-27T16:06:17.597Z,7.20
2018-03-27T16:08:59.932Z,7.10
2018-03-27T16:11:32.496Z,7.00
2018-03-27T16:14:08.272Z,6.80
2018-03-27T16:16:40.536Z,6.80
2018-03-27T16:19:14.698Z,6.80
2018-03-27T16:21:46.128Z,6.70
2018-03-27T16:24:19.835Z,6.60
2018-03-27T16:26:51.690Z,6.60
2018-03-27T16:29:22.365Z,6.60
2018-03-27T16:31:53.359Z,6.60
2018-03-27T16:34:24.072Z,6.70
2018-03-27T16:36:54.167Z,6.70
2018-03-27T16:39:33.275Z,6.60
2018-03-27T16:42:04.960Z,6.60
2018-03-27T16:44:35.852Z,6.50
2018-03-27T16:47:05.962Z,6.50
2018-03-27T16:49:56.853Z,6.40
2018-03-27T16:52:26.990Z,6.40
2018-03-27T16:55:22.822Z,6.40
2018-03-27T16:57:56.189Z,6.30
2018-03-27T17:03:22.606Z,6.20
2018-03-27T17:06:21.723Z,6.10
2018-03-27T17:09:11.799Z,5.90
2018-03-27T17:11:42.127Z,5.90
2018-03-27T17:17:21.327Z,5.80
2018-03-27T17:23:10.390Z,5.50
2018-03-27T17:25:41.532Z,5.60
2018-03-27T17:31:21.602Z,5.40
2018-03-27T17:33:56.323Z,5.30
2018-03-27T17:45:44.090Z,4.20
2018-03-27T17:48:14.215Z,4.00
2018-03-27T17:51:04.979Z,3.90
2018-03-27T17:53:52.185Z,3.80
2018-03-27T17:56:38.486Z,3.70
2018-03-27T17:59:09.436Z,3.60
2018-03-27T18:05:11.790Z,3.50
2018-03-27T18:11:09.638Z,3.50
2018-03-27T18:16:40.437Z,3.50
2018-03-27T18:22:17.750Z,3.60
2018-03-27T18:30:52.949Z,3.80
2018-03-27T18:33:26.048Z,3.90
2018-03-27T18:45:37.409Z,3.80
2018-03-27T18:54:17.856Z,3.70
2018-03-27T18:56:47.995Z,3.70
2018-03-27T19:02:46.531Z,3.50
2018-03-27T19:08:43.356Z,3.50
2018-03-27T19:17:29.569Z,3.40
2018-03-27T19:19:59.720Z,3.30
2018-03-27T19:22:29.843Z,3.20
2018-03-27T19:28:06.711Z,3.10
2018-03-27T19:30:36.938Z,3.10
2018-03-27T19:42:39.338Z,3.00
2018-03-27T19:48:15.923Z,2.90
2018-03-27T20:00:39.332Z,2.90
2018-03-27T20:03:47.847Z,2.90
2018-03-27T20:06:36.895Z,2.90
2018-03-27T20:24:31.519Z,2.90
2018-03-27T20:27:01.707Z,2.90
2018-03-27T20:29:32.066Z,2.90
2018-03-27T20:32:02.476Z,2.80
2018-03-27T20:40:45.841Z,2.90
2018-03-27T20:49:36.603Z,2.90
2018-03-27T20:52:22.085Z,2.90
2018-03-27T20:58:00.210Z,2.90
2018-03-27T21:00:57.410Z,2.90
2018-03-27T21:13:22.515Z,3.00
2018-03-27T21:24:56.956Z,3.00
2018-03-27T21:30:30.334Z,3.00
2018-03-27T21:36:20.410Z,3.00
2018-03-27T21:41:59.638Z,3.10
2018-03-27T21:47:36.298Z,3.10
2018-03-27T21:50:06.218Z,3.10
2018-03-27T22:11:42.575Z,3.40
2018-03-27T22:14:12.678Z,3.40
2018-03-27T22:26:12.591Z,3.50
2018-03-27T22:28:43.161Z,3.60
2018-03-27T22:31:15.421Z,3.50
2018-03-27T22:33:45.808Z,3.60
2018-03-27T22:36:16.045Z,3.60
2018-03-27T22:38:46.161Z,3.60
2018-03-27T22:44:29.696Z,3.60
2018-03-27T22:53:28.550Z,3.70
2018-03-27T22:56:19.430Z,3.70
2018-03-27T23:02:24.923Z,3.70
2018-03-27T23:04:55.645Z,3.80
2018-03-27T23:10:50.760Z,3.80
2018-03-27T23:13:24.805Z,3.80
2018-03-27T23:16:21.854Z,3.90
2018-03-27T23:19:08.510Z,4.00
2018-03-27T23:40:45.688Z,4.10
2018-03-27T23:46:30.405Z,4.10
2018-03-27T23:49:00.587Z,4.00
2018-03-27T23:51:31.317Z,4.10
2018-03-27T23:54:01.483Z,4.10
2018-03-27T23:56:31.610Z,4.10
